Time;durP1;ratioP1;P1;durP2;ratioP2;P2;SDS_P1;SDS_P2;PMS_P1;PMS_P2;Temp;Humidity;BMP_temperature;BMP_pressure;BME280_temperature;BME280_humidity;BME280_pressure;Samples;Min_cycle;Max_cycle;Signal;HPM_P1;HPM_P2
2021/06/26 00:01:41;;;;;;;15.50;2.35;;;;;;;;;;5012801;28;20022;-34
2021/06/26 00:04:10;;;;;;;14.98;1.92;;;;;;;;;;5013077;28;20065;-38
2021/06/26 00:06:37;;;;;;;14.65;2.50;;;;;;;;;;5013034;28;20026;-34
2021/06/26 00:09:04;;;;;;;13.32;2.25;;;;;;;;;;5013395;28;20496;-44
2021/06/26 00:11:32;;;;;;;14.52;2.10;;;;;;;;;;5013144;28;20152;-39
2021/06/26 00:13:59;;;;;;;12.20;2.53;;;;;;;;;;5012635;28;20025;-43
2021/06/26 00:16:26;;;;;;;12.13;2.05;;;;;;;;;;5012587;28;20026;-37
2021/06/26 00:18:53;;;;;;;10.85;2.13;;;;;;;;;;5012335;28;20041;-35
2021/06/26 00:21:20;;;;;;;15.02;2.03;;;;;;;;;;5011805;28;20399;-36
2021/06/26 00:23:47;;;;;;;13.18;2.30;;;;;;;;;;5011454;28;20049;-35
2021/06/26 00:26:14;;;;;;;12.02;2.45;;;;;;;;;;5012067;28;20061;-40
2021/06/26 00:28:41;;;;;;;12.50;2.75;;;;;;;;;;5009409;28;20624;-39
2021/06/26 00:31:08;;;;;;;14.82;2.80;;;;;;;;;;5011577;28;20022;-43
2021/06/26 00:33:35;;;;;;;12.15;2.85;;;;;;;;;;5009026;28;20548;-33
2021/06/26 00:36:02;;;;;;;23.17;3.50;;;;;;;;;;5009025;28;20072;-32
2021/06/26 00:38:29;;;;;;;12.98;3.45;;;;;;;;;;5007199;28;20444;-36
2021/06/26 00:40:56;;;;;;;22.10;4.47;;;;;;;;;;5008978;28;20026;-36
2021/06/26 00:43:24;;;;;;;18.25;4.70;;;;;;;;;;5009116;28;20025;-33
2021/06/26 00:45:51;;;;;;;17.05;5.03;;;;;;;;;;5007125;28;20014;-33
2021/06/26 00:48:18;;;;;;;20.98;5.65;;;;;;;;;;5009194;28;20033;-33
2021/06/26 00:50:45;;;;;;;22.88;5.75;;;;;;;;;;5006296;28;20046;-34
2021/06/26 00:53:12;;;;;;;29.63;6.68;;;;;;;;;;5010021;28;20029;-32
2021/06/26 00:55:39;;;;;;;23.42;6.78;;;;;;;;;;5006128;28;20057;-34
2021/06/26 00:58:06;;;;;;;18.05;6.88;;;;;;;;;;5008818;28;20030;-36
2021/06/26 01:00:34;;;;;;;22.65;7.72;;;;;;;;;;5007167;28;20489;-40
2021/06/26 01:03:01;;;;;;;20.48;7.55;;;;;;;;;;4994368;28;20034;-36
2021/06/26 01:05:28;;;;;;;19.15;7.85;;;;;;;;;;4995542;28;20542;-36
2021/06/26 01:07:55;;;;;;;18.77;7.53;;;;;;;;;;4998396;28;20026;-33
2021/06/26 01:10:22;;;;;;;24.45;8.00;;;;;;;;;;5009184;28;20026;-33
2021/06/26 01:12:50;;;;;;;26.38;8.23;;;;;;;;;;5007618;28;20026;-34
2021/06/26 01:15:17;;;;;;;23.70;8.40;;;;;;;;;;5002911;28;20023;-32
2021/06/26 01:17:45;;;;;;;25.05;7.60;;;;;;;;;;5010467;28;20034;-33
2021/06/26 01:20:12;;;;;;;19.98;7.22;;;;;;;;;;5005400;28;20052;-33
2021/06/26 01:22:44;;;;;;;17.25;7.55;;;;;;;;;;4999931;28;20116;-32
2021/06/26 01:25:13;;;;;;;20.98;7.45;;;;;;;;;;5010068;28;20085;-35
2021/06/26 01:27:41;;;;;;;24.27;8.65;;;;;;;;;;5008274;28;20746;-35
2021/06/26 01:30:08;;;;;;;23.42;7.45;;;;;;;;;;5008681;28;20064;-34
2021/06/26 01:32:35;;;;;;;21.98;7.20;;;;;;;;;;5008858;28;20026;-34
2021/06/26 01:35:03;;;;;;;16.98;6.78;;;;;;;;;;5008312;28;20029;-33
2021/06/26 01:37:30;;;;;;;17.70;7.10;;;;;;;;;;5008566;28;20088;-33
2021/06/26 01:39:58;;;;;;;18.35;7.07;;;;;;;;;;5009927;28;20022;-33
2021/06/26 01:42:25;;;;;;;22.00;6.32;;;;;;;;;;5008039;28;20023;-34
2021/06/26 01:44:52;;;;;;;21.00;7.32;;;;;;;;;;5008515;28;20018;-32
2021/06/26 01:47:19;;;;;;;17.75;6.60;;;;;;;;;;5006220;28;20029;-34
2021/06/26 01:49:46;;;;;;;19.63;6.47;;;;;;;;;;5007563;28;20025;-33
2021/06/26 01:52:14;;;;;;;16.05;6.18;;;;;;;;;;5011110;28;20153;-33
2021/06/26 01:54:41;;;;;;;21.40;6.28;;;;;;;;;;4986838;28;20052;-33
2021/06/26 01:57:12;;;;;;;19.25;6.53;;;;;;;;;;5003738;28;20068;-33
2021/06/26 01:59:40;;;;;;;17.92;5.78;;;;;;;;;;4999118;28;20023;-33
2021/06/26 02:02:07;;;;;;;17.17;5.90;;;;;;;;;;4989030;28;20526;-34
2021/06/26 02:04:35;;;;;;;15.27;5.65;;;;;;;;;;4998488;28;20022;-34
2021/06/26 02:07:03;;;;;;;13.38;5.68;;;;;;;;;;5001126;28;20117;-33
2021/06/26 02:09:31;;;;;;;12.77;5.28;;;;;;;;;;5004525;28;20014;-34
2021/06/26 02:11:58;;;;;;;17.25;5.50;;;;;;;;;;5004416;28;20022;-54
2021/06/26 02:14:25;;;;;;;18.42;5.18;;;;;;;;;;5003391;28;20049;-34
2021/06/26 02:16:53;;;;;;;13.60;4.93;;;;;;;;;;5006912;28;20034;-34
2021/06/26 02:19:21;;;;;;;20.52;5.30;;;;;;;;;;5009029;28;20025;-34
2021/06/26 02:21:48;;;;;;;13.75;5.13;;;;;;;;;;4985875;28;20022;-33
2021/06/26 02:24:17;;;;;;;16.25;5.07;;;;;;;;;;5000779;28;20084;-33
2021/06/26 02:26:45;;;;;;;17.17;5.43;;;;;;;;;;5012166;28;20465;-34
2021/06/26 02:29:12;;;;;;;10.82;4.55;;;;;;;;;;5020910;28;20026;-33
2021/06/26 02:31:40;;;;;;;11.77;4.70;;;;;;;;;;5010370;28;20040;-41
2021/06/26 02:34:10;;;;;;;16.23;4.65;;;;;;;;;;4992559;28;20101;-33
2021/06/26 02:36:37;;;;;;;10.50;4.80;;;;;;;;;;5004375;28;20503;-45
2021/06/26 02:39:04;;;;;;;15.48;4.55;;;;;;;;;;5011101;28;20026;-43
2021/06/26 02:41:31;;;;;;;13.57;4.47;;;;;;;;;;5010986;28;20065;-59
2021/06/26 02:43:58;;;;;;;8.82;3.75;;;;;;;;;;5010964;28;20548;-46
2021/06/26 02:46:25;;;;;;;12.40;4.13;;;;;;;;;;5010177;28;20029;-47
2021/06/26 02:48:53;;;;;;;13.10;4.35;;;;;;;;;;5010903;28;20022;-53
2021/06/26 02:51:20;;;;;;;12.82;4.10;;;;;;;;;;5011563;28;20100;-33
2021/06/26 02:53:47;;;;;;;19.35;3.60;;;;;;;;;;5009419;28;20117;-39
2021/06/26 02:56:14;;;;;;;11.60;3.55;;;;;;;;;;5011626;28;20032;-35
2021/06/26 02:58:41;;;;;;;8.18;3.38;;;;;;;;;;4994433;28;20365;-35
2021/06/26 03:01:08;;;;;;;10.75;3.20;;;;;;;;;;5015192;28;20529;-37
2021/06/26 03:03:36;;;;;;;13.70;3.60;;;;;;;;;;5015330;28;20064;-33
2021/06/26 03:06:03;;;;;;;14.88;3.58;;;;;;;;;;5015622;28;20022;-36
2021/06/26 03:08:30;;;;;;;12.48;3.58;;;;;;;;;;5015362;28;20537;-33
2021/06/26 03:10:57;;;;;;;12.93;3.28;;;;;;;;;;5014870;28;20030;-35
2021/06/26 03:13:24;;;;;;;13.98;3.28;;;;;;;;;;5015551;28;20079;-38
2021/06/26 03:15:52;;;;;;;7.57;3.00;;;;;;;;;;5014821;28;20538;-39
2021/06/26 03:18:20;;;;;;;9.63;3.47;;;;;;;;;;5014826;28;20488;-38
2021/06/26 03:20:47;;;;;;;12.20;3.00;;;;;;;;;;5014833;28;20045;-50
2021/06/26 03:23:14;;;;;;;10.70;3.42;;;;;;;;;;5015399;28;20473;-61
2021/06/26 03:25:59;;;;;;;12.38;2.72;;;;;;;;;;5014685;28;20018;-36
2021/06/26 03:28:26;;;;;;;10.70;2.85;;;;;;;;;;5014963;28;20054;-42
2021/06/26 03:30:53;;;;;;;10.38;2.90;;;;;;;;;;5014872;28;20478;-36
2021/06/26 03:33:21;;;;;;;14.27;3.13;;;;;;;;;;5015139;28;20033;-36
2021/06/26 03:35:48;;;;;;;8.57;2.80;;;;;;;;;;5014439;28;20661;-40
2021/06/26 03:38:15;;;;;;;6.93;2.63;;;;;;;;;;5014720;28;20117;-35
2021/06/26 03:40:42;;;;;;;8.73;2.83;;;;;;;;;;5014463;28;20026;-36
2021/06/26 03:43:09;;;;;;;7.38;2.72;;;;;;;;;;5014845;28;20474;-36
2021/06/26 03:45:36;;;;;;;7.60;2.63;;;;;;;;;;5015032;28;20029;-37
2021/06/26 03:48:03;;;;;;;7.25;2.90;;;;;;;;;;4996568;28;20026;-37
2021/06/26 03:50:33;;;;;;;7.38;2.28;;;;;;;;;;5014760;28;20042;-35
2021/06/26 03:53:00;;;;;;;6.70;2.50;;;;;;;;;;5014044;28;20057;-36
2021/06/26 03:55:27;;;;;;;9.57;2.30;;;;;;;;;;5014528;28;20026;-39
2021/06/26 03:57:57;;;;;;;7.15;2.30;;;;;;;;;;5014085;28;20117;-35
2021/06/26 04:00:24;;;;;;;8.82;3.08;;;;;;;;;;5014775;28;20033;-36
2021/06/26 04:02:51;;;;;;;8.50;2.45;;;;;;;;;;5014032;28;20022;-37
2021/06/26 04:05:18;;;;;;;6.50;2.30;;;;;;;;;;5014368;28;20022;-35
2021/06/26 04:07:45;;;;;;;9.18;2.40;;;;;;;;;;5013945;28;20049;-38
2021/06/26 04:10:12;;;;;;;8.23;2.60;;;;;;;;;;5013329;28;20113;-36
2021/06/26 04:12:39;;;;;;;8.35;2.65;;;;;;;;;;5013926;28;20656;-35
2021/06/26 04:15:07;;;;;;;5.20;2.08;;;;;;;;;;5014456;28;20030;-36
2021/06/26 04:17:34;;;;;;;5.38;2.15;;;;;;;;;;5014461;28;20033;-38
2021/06/26 04:20:01;;;;;;;6.50;2.70;;;;;;;;;;5013651;28;20022;-37
2021/06/26 04:22:28;;;;;;;6.03;2.03;;;;;;;;;;5014040;28;20018;-37
2021/06/26 04:24:55;;;;;;;5.90;1.90;;;;;;;;;;5013762;28;20029;-38
2021/06/26 04:27:22;;;;;;;6.00;2.10;;;;;;;;;;5013855;28;20053;-37
2021/06/26 04:29:49;;;;;;;6.97;1.85;;;;;;;;;;5013419;28;20025;-37
2021/06/26 04:32:16;;;;;;;7.18;2.10;;;;;;;;;;5014154;28;20025;-38
2021/06/26 04:34:43;;;;;;;4.47;2.00;;;;;;;;;;5013289;28;20026;-36
2021/06/26 04:37:10;;;;;;;7.10;2.13;;;;;;;;;;5013640;28;20116;-37
2021/06/26 04:39:37;;;;;;;6.03;1.90;;;;;;;;;;5013444;28;20048;-37
2021/06/26 04:42:04;;;;;;;6.00;1.98;;;;;;;;;;5013844;28;20026;-40
2021/06/26 04:44:31;;;;;;;6.18;2.13;;;;;;;;;;5013361;28;20032;-36
2021/06/26 04:46:58;;;;;;;6.93;2.35;;;;;;;;;;5013712;28;20481;-36
2021/06/26 04:49:25;;;;;;;6.35;2.30;;;;;;;;;;5013524;28;20022;-40
2021/06/26 04:51:52;;;;;;;5.95;1.80;;;;;;;;;;5013062;28;20029;-36
2021/06/26 04:54:19;;;;;;;7.70;2.28;;;;;;;;;;5013694;28;20018;-36
2021/06/26 04:56:46;;;;;;;5.47;2.10;;;;;;;;;;5012927;28;20378;-38
2021/06/26 04:59:13;;;;;;;7.18;2.05;;;;;;;;;;5013389;28;20025;-37
2021/06/26 05:01:40;;;;;;;3.97;1.70;;;;;;;;;;5013016;28;20030;-36
2021/06/26 05:04:07;;;;;;;3.88;2.00;;;;;;;;;;5013433;28;20401;-37
2021/06/26 05:06:34;;;;;;;6.43;1.92;;;;;;;;;;5012684;28;20442;-36
2021/06/26 05:09:01;;;;;;;4.55;1.83;;;;;;;;;;5013315;28;20033;-44
2021/06/26 05:11:28;;;;;;;6.20;1.75;;;;;;;;;;5012448;28;20500;-45
2021/06/26 05:13:55;;;;;;;3.22;1.55;;;;;;;;;;5013232;28;20045;-39
2021/06/26 05:16:25;;;;;;;3.97;1.83;;;;;;;;;;5012743;28;20025;-40
2021/06/26 05:18:52;;;;;;;3.83;1.67;;;;;;;;;;5012917;28;20049;-38
2021/06/26 05:21:19;;;;;;;5.10;1.45;;;;;;;;;;5012510;28;20026;-61
2021/06/26 05:23:47;;;;;;;3.83;1.85;;;;;;;;;;5012812;28;20037;-62
2021/06/26 05:26:14;;;;;;;4.57;1.73;;;;;;;;;;5013198;28;20100;-57
2021/06/26 05:28:41;;;;;;;3.58;1.70;;;;;;;;;;5012429;28;20077;-60
2021/06/26 05:31:08;;;;;;;4.40;1.90;;;;;;;;;;5012617;28;20033;-56
2021/06/26 05:33:35;;;;;;;3.88;1.70;;;;;;;;;;5012519;28;20022;-59
2021/06/26 05:36:02;;;;;;;3.88;1.50;;;;;;;;;;5012649;28;20531;-59
2021/06/26 05:38:29;;;;;;;3.10;1.67;;;;;;;;;;5012394;28;20037;-55
2021/06/26 05:40:56;;;;;;;4.25;1.45;;;;;;;;;;5012180;28;20041;-58
2021/06/26 05:43:23;;;;;;;4.05;1.52;;;;;;;;;;5012363;28;20093;-54
2021/06/26 05:45:50;;;;;;;7.43;1.55;;;;;;;;;;5012308;28;20022;-46
2021/06/26 05:48:17;;;;;;;5.25;1.58;;;;;;;;;;5012298;28;20401;-63
2021/06/26 05:50:44;;;;;;;5.35;1.70;;;;;;;;;;5012264;28;20022;-61
2021/06/26 05:53:12;;;;;;;3.08;1.23;;;;;;;;;;5012252;28;20112;-45
2021/06/26 05:55:39;;;;;;;3.53;1.20;;;;;;;;;;5012684;28;20018;-35
2021/06/26 05:58:06;;;;;;;2.05;1.10;;;;;;;;;;5012434;28;20034;-36
2021/06/26 06:00:34;;;;;;;3.00;1.33;;;;;;;;;;5011787;28;20032;-36
2021/06/26 06:03:02;;;;;;;2.53;1.42;;;;;;;;;;5012411;28;20048;-36
2021/06/26 06:05:29;;;;;;;3.20;1.23;;;;;;;;;;5011671;28;20026;-40
2021/06/26 06:07:56;;;;;;;1.60;1.00;;;;;;;;;;5012583;28;20026;-52
2021/06/26 06:10:25;;;;;;;2.25;1.10;;;;;;;;;;5011864;28;20478;-53
2021/06/26 06:12:52;;;;;;;4.07;1.30;;;;;;;;;;5012101;28;20030;-60
2021/06/26 06:15:19;;;;;;;2.30;1.23;;;;;;;;;;5011648;28;20014;-56
2021/06/26 06:17:46;;;;;;;2.03;0.88;;;;;;;;;;5012335;28;20034;-60
2021/06/26 06:20:14;;;;;;;3.33;1.33;;;;;;;;;;5010315;28;20165;-35
2021/06/26 06:22:41;;;;;;;2.03;1.20;;;;;;;;;;5011663;28;20037;-57
2021/06/26 06:25:12;;;;;;;1.80;1.10;;;;;;;;;;5011443;28;20133;-57
2021/06/26 06:27:42;;;;;;;2.40;1.00;;;;;;;;;;5011829;28;20050;-43
2021/06/26 06:30:09;;;;;;;1.98;1.05;;;;;;;;;;5011555;28;20044;-51
2021/06/26 06:32:37;;;;;;;4.25;1.20;;;;;;;;;;5011236;28;20062;-63
2021/06/26 06:35:04;;;;;;;2.10;1.00;;;;;;;;;;5012082;28;20464;-51
2021/06/26 06:37:31;;;;;;;2.72;0.85;;;;;;;;;;5011537;28;20053;-61
2021/06/26 06:39:58;;;;;;;2.50;0.95;;;;;;;;;;5012121;28;20022;-58
2021/06/26 06:42:25;;;;;;;2.08;0.95;;;;;;;;;;5011449;28;20026;-63
2021/06/26 06:44:52;;;;;;;3.15;0.95;;;;;;;;;;5011843;28;20045;-53
2021/06/26 06:47:19;;;;;;;2.33;1.10;;;;;;;;;;5011444;28;20026;-45
2021/06/26 06:49:46;;;;;;;1.67;0.80;;;;;;;;;;5012086;28;20481;-36
2021/06/26 06:52:13;;;;;;;1.80;0.95;;;;;;;;;;5011244;28;20413;-35
2021/06/26 06:54:40;;;;;;;4.03;0.98;;;;;;;;;;4994169;28;20428;-36
2021/06/26 06:57:07;;;;;;;3.45;1.33;;;;;;;;;;5011336;28;20037;-36
2021/06/26 06:59:34;;;;;;;2.33;0.80;;;;;;;;;;5011709;28;20414;-36
2021/06/26 07:02:01;;;;;;;2.25;0.85;;;;;;;;;;5010995;28;20026;-37
2021/06/26 07:04:28;;;;;;;3.42;1.05;;;;;;;;;;5011853;28;20029;-35
2021/06/26 07:06:55;;;;;;;1.52;0.90;;;;;;;;;;5011634;28;20033;-38
2021/06/26 07:09:23;;;;;;;2.15;1.05;;;;;;;;;;5011240;28;20019;-53
2021/06/26 07:11:50;;;;;;;3.08;0.82;;;;;;;;;;5011651;28;20037;-60
2021/06/26 07:14:17;;;;;;;2.83;0.68;;;;;;;;;;4993548;28;20025;-54
2021/06/26 07:16:44;;;;;;;1.60;0.70;;;;;;;;;;5011581;28;20026;-61
2021/06/26 07:19:11;;;;;;;2.10;0.80;;;;;;;;;;5011207;28;20140;-61
2021/06/26 07:21:38;;;;;;;2.45;0.80;;;;;;;;;;5011465;28;20026;-62
2021/06/26 07:24:05;;;;;;;1.77;0.60;;;;;;;;;;5011169;28;20046;-50
2021/06/26 07:26:32;;;;;;;3.10;0.80;;;;;;;;;;5011418;28;20022;-60
2021/06/26 07:28:59;;;;;;;1.90;0.73;;;;;;;;;;5010975;28;20389;-37
2021/06/26 07:31:26;;;;;;;3.33;1.00;;;;;;;;;;5011295;28;20045;-36
2021/06/26 07:33:53;;;;;;;1.40;0.70;;;;;;;;;;5010933;28;20022;-37
2021/06/26 07:36:20;;;;;;;1.77;0.70;;;;;;;;;;5011388;28;20160;-36
2021/06/26 07:38:47;;;;;;;1.30;0.50;;;;;;;;;;5011423;28;20081;-42
2021/06/26 07:41:14;;;;;;;1.33;0.73;;;;;;;;;;5011203;28;20524;-42
2021/06/26 07:43:42;;;;;;;1.73;0.80;;;;;;;;;;5011133;28;20029;-35
2021/06/26 07:46:09;;;;;;;3.53;0.70;;;;;;;;;;5013546;28;20020;-35
2021/06/26 07:48:36;;;;;;;3.88;0.80;;;;;;;;;;5015008;28;20022;-35
2021/06/26 07:51:03;;;;;;;3.03;0.80;;;;;;;;;;5014299;28;20026;-37
2021/06/26 07:53:30;;;;;;;1.35;0.50;;;;;;;;;;5014482;28;20388;-36
2021/06/26 07:55:57;;;;;;;1.77;0.70;;;;;;;;;;5014401;28;20065;-40
2021/06/26 07:58:25;;;;;;;1.73;0.60;;;;;;;;;;5014681;28;20042;-37
2021/06/26 08:00:53;;;;;;;1.05;0.55;;;;;;;;;;5013844;28;20037;-37
2021/06/26 08:03:20;;;;;;;1.48;0.50;;;;;;;;;;5014562;28;20017;-36
2021/06/26 08:05:48;;;;;;;0.93;0.50;;;;;;;;;;5014059;28;20438;-36
2021/06/26 08:08:15;;;;;;;1.10;0.50;;;;;;;;;;5014534;28;20548;-36
2021/06/26 08:10:42;;;;;;;2.15;0.60;;;;;;;;;;5013897;28;20025;-36
2021/06/26 08:13:12;;;;;;;2.55;0.70;;;;;;;;;;5014020;28;20026;-34
2021/06/26 08:15:40;;;;;;;1.17;0.55;;;;;;;;;;5014108;28;20018;-36
2021/06/26 08:18:07;;;;;;;1.00;0.60;;;;;;;;;;5013798;28;20030;-36
2021/06/26 08:20:35;;;;;;;0.70;0.40;;;;;;;;;;5014345;28;20026;-37
2021/06/26 08:23:02;;;;;;;0.95;0.55;;;;;;;;;;5013459;28;20034;-35
2021/06/26 08:25:30;;;;;;;1.95;0.47;;;;;;;;;;5014242;28;20152;-40
2021/06/26 08:27:57;;;;;;;1.15;0.50;;;;;;;;;;5013601;28;20404;-36
2021/06/26 08:30:24;;;;;;;1.30;0.50;;;;;;;;;;5013884;28;20081;-35
2021/06/26 08:32:52;;;;;;;1.65;0.50;;;;;;;;;;5013235;28;20370;-36
2021/06/26 08:35:19;;;;;;;1.15;0.60;;;;;;;;;;5014186;28;20040;-35
2021/06/26 08:37:48;;;;;;;1.02;0.50;;;;;;;;;;5013328;28;20160;-36
2021/06/26 08:40:16;;;;;;;1.05;0.40;;;;;;;;;;5013895;28;20030;-36
2021/06/26 08:42:43;;;;;;;1.83;0.65;;;;;;;;;;5013471;28;20026;-35
2021/06/26 08:45:16;;;;;;;0.75;0.50;;;;;;;;;;5013586;28;20032;-35
2021/06/26 08:47:43;;;;;;;0.77;0.30;;;;;;;;;;5013652;28;20029;-36
2021/06/26 08:50:10;;;;;;;1.88;0.55;;;;;;;;;;5013611;28;20420;-37
2021/06/26 08:52:37;;;;;;;2.72;0.40;;;;;;;;;;5013912;28;20499;-38
2021/06/26 08:55:05;;;;;;;0.70;0.50;;;;;;;;;;5012454;28;20030;-36
2021/06/26 08:57:32;;;;;;;1.17;0.45;;;;;;;;;;5013406;28;20042;-36
2021/06/26 09:00:00;;;;;;;0.77;0.50;;;;;;;;;;5013386;28;20022;-35
2021/06/26 09:02:28;;;;;;;0.68;0.40;;;;;;;;;;5013371;28;20088;-36
2021/06/26 09:04:56;;;;;;;1.15;0.40;;;;;;;;;;5012775;28;20025;-35
2021/06/26 09:07:30;;;;;;;0.80;0.30;;;;;;;;;;5013670;28;20420;-36
2021/06/26 09:09:57;;;;;;;0.90;0.40;;;;;;;;;;5013016;28;20022;-36
2021/06/26 09:12:28;;;;;;;0.70;0.30;;;;;;;;;;5013308;28;20083;-35
2021/06/26 09:14:55;;;;;;;1.33;0.47;;;;;;;;;;5012652;28;20149;-36
2021/06/26 09:17:32;;;;;;;1.05;0.30;;;;;;;;;;5013368;28;20120;-37
2021/06/26 09:20:02;;;;;;;1.48;0.25;;;;;;;;;;5012505;28;20056;-35
2021/06/26 09:22:39;;;;;;;1.05;0.45;;;;;;;;;;5013286;28;20053;-35
2021/06/26 09:25:21;;;;;;;0.30;0.20;;;;;;;;;;5012256;28;20032;-35
2021/06/26 09:27:48;;;;;;;0.60;0.35;;;;;;;;;;5012888;28;20053;-36
2021/06/26 09:30:15;;;;;;;0.90;0.32;;;;;;;;;;5012745;28;20386;-36
2021/06/26 09:32:46;;;;;;;1.05;0.40;;;;;;;;;;5012858;28;20133;-36
2021/06/26 09:35:16;;;;;;;0.50;0.40;;;;;;;;;;5012605;28;20048;-35
2021/06/26 09:37:44;;;;;;;1.13;0.32;;;;;;;;;;5012365;28;20058;-36
2021/06/26 09:40:13;;;;;;;0.73;0.30;;;;;;;;;;5012797;28;20377;-64
2021/06/26 09:42:40;;;;;;;1.20;0.50;;;;;;;;;;5012278;28;20060;-57
2021/06/26 09:45:07;;;;;;;0.40;0.30;;;;;;;;;;5012432;28;20033;-60
2021/06/26 09:47:34;;;;;;;1.10;0.52;;;;;;;;;;5012095;28;20393;-62
2021/06/26 09:50:08;;;;;;;1.13;0.30;;;;;;;;;;5012496;28;20018;-56
2021/06/26 09:53:04;;;;;;;0.45;0.30;;;;;;;;;;5012103;28;20026;-59
2021/06/26 09:55:32;;;;;;;0.85;0.35;;;;;;;;;;5011177;28;20052;-47
2021/06/26 09:58:00;;;;;;;0.70;0.30;;;;;;;;;;5012000;28;20468;-58
2021/06/26 10:00:29;;;;;;;0.73;0.35;;;;;;;;;;5012422;28;20021;-52
2021/06/26 10:02:57;;;;;;;0.60;0.30;;;;;;;;;;5011951;28;20109;-35
2021/06/26 10:05:24;;;;;;;0.65;0.25;;;;;;;;;;5012273;28;20022;-35
2021/06/26 10:07:54;;;;;;;0.98;0.30;;;;;;;;;;5011290;28;20030;-37
2021/06/26 10:10:23;;;;;;;0.50;0.30;;;;;;;;;;5012298;28;20021;-35
2021/06/26 10:12:55;;;;;;;1.17;0.40;;;;;;;;;;5011623;28;20025;-34
2021/06/26 10:15:22;;;;;;;0.40;0.25;;;;;;;;;;5012213;28;20400;-34
2021/06/26 10:17:50;;;;;;;0.73;0.40;;;;;;;;;;5011651;28;20034;-47
2021/06/26 10:20:17;;;;;;;0.30;0.20;;;;;;;;;;5012190;28;20028;-37
2021/06/26 10:22:49;;;;;;;0.63;0.35;;;;;;;;;;5012235;28;20136;-63
2021/06/26 10:25:17;;;;;;;1.75;0.30;;;;;;;;;;5011653;28;20080;-54
2021/06/26 10:27:44;;;;;;;0.30;0.30;;;;;;;;;;5011882;28;20046;-41
2021/06/26 10:30:18;;;;;;;0.93;0.30;;;;;;;;;;5011461;28;20080;-37
2021/06/26 10:32:55;;;;;;;1.20;0.30;;;;;;;;;;5012260;28;20425;-59
2021/06/26 10:35:24;;;;;;;0.40;0.30;;;;;;;;;;5011539;28;20026;-60
2021/06/26 10:38:03;;;;;;;0.70;0.35;;;;;;;;;;5012061;28;20034;-64
2021/06/26 10:40:39;;;;;;;1.13;0.30;;;;;;;;;;5011170;28;20424;-63
2021/06/26 10:43:20;;;;;;;0.45;0.32;;;;;;;;;;5011854;28;20018;-59
2021/06/26 10:45:48;;;;;;;1.05;0.20;;;;;;;;;;5011152;28;20093;-58
2021/06/26 10:48:17;;;;;;;0.40;0.30;;;;;;;;;;5012102;28;20018;-63
2021/06/26 10:50:51;;;;;;;2.15;0.47;;;;;;;;;;5010559;28;20421;-58
2021/06/26 10:53:25;;;;;;;0.60;0.30;;;;;;;;;;5011790;28;20037;-59
2021/06/26 10:55:59;;;;;;;0.40;0.20;;;;;;;;;;5010948;28;20026;-57
2021/06/26 10:58:30;;;;;;;0.30;0.20;;;;;;;;;;5011964;28;20034;-55
2021/06/26 11:00:58;;;;;;;0.50;0.20;;;;;;;;;;4993644;28;20025;-48
2021/06/26 11:03:31;;;;;;;0.43;0.22;;;;;;;;;;5011798;28;20049;-59
2021/06/26 11:05:59;;;;;;;1.20;0.38;;;;;;;;;;5011155;28;20022;-47
2021/06/26 11:08:27;;;;;;;1.50;0.30;;;;;;;;;;5011918;28;20029;-53
2021/06/26 11:10:57;;;;;;;0.98;0.30;;;;;;;;;;5011383;28;20186;-59
2021/06/26 11:13:27;;;;;;;0.57;0.30;;;;;;;;;;5011677;28;20022;-44
2021/06/26 11:15:57;;;;;;;0.38;0.20;;;;;;;;;;5011332;28;20032;-51
2021/06/26 11:18:24;;;;;;;1.13;0.30;;;;;;;;;;5011510;28;20030;-63
2021/06/26 11:20:51;;;;;;;0.68;0.30;;;;;;;;;;5015315;28;20022;-45
2021/06/26 11:23:19;;;;;;;0.40;0.38;;;;;;;;;;5015072;28;20025;-36
2021/06/26 11:25:46;;;;;;;0.52;0.38;;;;;;;;;;5015239;28;20084;-36
2021/06/26 11:28:15;;;;;;;1.45;0.35;;;;;;;;;;5014638;28;20046;-34
2021/06/26 11:30:43;;;;;;;0.43;0.20;;;;;;;;;;5014062;28;20045;-37
2021/06/26 11:33:11;;;;;;;1.35;0.30;;;;;;;;;;5014564;28;20729;-37
2021/06/26 11:35:44;;;;;;;0.40;0.20;;;;;;;;;;5014794;28;20037;-37
2021/06/26 11:38:18;;;;;;;0.50;0.30;;;;;;;;;;5014596;28;20541;-35
2021/06/26 11:40:46;;;;;;;0.28;0.28;;;;;;;;;;5015027;28;20026;-35
2021/06/26 11:43:13;;;;;;;1.25;0.30;;;;;;;;;;5014620;28;20021;-36
2021/06/26 11:45:41;;;;;;;0.52;0.30;;;;;;;;;;5014734;28;20374;-39
2021/06/26 11:48:15;;;;;;;1.10;0.32;;;;;;;;;;5014165;28;20464;-36
2021/06/26 11:50:52;;;;;;;0.90;0.30;;;;;;;;;;4997363;28;20033;-36
2021/06/26 11:53:21;;;;;;;1.45;0.30;;;;;;;;;;5014578;28;20029;-36
2021/06/26 11:55:55;;;;;;;0.47;0.20;;;;;;;;;;5014862;28;20034;-36
2021/06/26 11:58:23;;;;;;;1.17;0.30;;;;;;;;;;5014000;28;20510;-35
2021/06/26 12:01:05;;;;;;;0.52;0.30;;;;;;;;;;5013942;28;20014;-36
2021/06/26 12:03:32;;;;;;;;;;;;;;;;;;5014720;28;20444;-35
2021/06/26 12:06:00;;;;;;;0.43;0.30;;;;;;;;;;5014562;28;19906;-36
2021/06/26 12:08:27;;;;;;;1.98;0.30;;;;;;;;;;5014285;28;20049;-35
2021/06/26 12:10:54;;;;;;;0.52;0.30;;;;;;;;;;5013804;28;20388;-34
2021/06/26 12:13:21;;;;;;;0.45;0.20;;;;;;;;;;5014533;28;20021;-35
2021/06/26 12:15:49;;;;;;;0.65;0.20;;;;;;;;;;5013851;28;20033;-37
2021/06/26 12:18:16;;;;;;;1.77;0.40;;;;;;;;;;5014193;28;20034;-40
2021/06/26 12:20:43;;;;;;;0.40;0.20;;;;;;;;;;5013627;28;20076;-55
2021/06/26 12:23:14;;;;;;;0.20;0.13;;;;;;;;;;5014200;28;20052;-36
2021/06/26 12:25:46;;;;;;;0.55;0.30;;;;;;;;;;5013627;28;20025;-41
2021/06/26 12:28:13;;;;;;;1.27;0.20;;;;;;;;;;5013826;28;20501;-37
2021/06/26 12:30:41;;;;;;;2.40;0.22;;;;;;;;;;5012807;28;20499;-39
2021/06/26 12:33:09;;;;;;;0.38;0.32;;;;;;;;;;5014011;28;20385;-37
2021/06/26 12:35:36;;;;;;;1.33;0.20;;;;;;;;;;5013568;28;20034;-36
2021/06/26 12:38:04;;;;;;;3.22;0.30;;;;;;;;;;5013513;28;20030;-35
2021/06/26 12:40:35;;;;;;;0.45;0.20;;;;;;;;;;5013293;28;20092;-36
2021/06/26 12:43:09;;;;;;;0.60;0.32;;;;;;;;;;5014091;28;20026;-35
2021/06/26 12:45:38;;;;;;;0.63;0.30;;;;;;;;;;5013537;28;20524;-46
2021/06/26 12:48:10;;;;;;;0.60;0.30;;;;;;;;;;5013725;28;20896;-35
2021/06/26 12:50:54;;;;;;;1.65;0.40;;;;;;;;;;5013535;28;20045;-35
2021/06/26 12:53:31;;;;;;;0.80;0.30;;;;;;;;;;5013800;28;20382;-35
2021/06/26 12:56:16;;;;;;;1.95;0.30;;;;;;;;;;5013236;28;20394;-34
2021/06/26 12:58:52;;;;;;;0.55;0.32;;;;;;;;;;5013582;28;20034;-36
2021/06/26 13:01:20;;;;;;;0.20;0.13;;;;;;;;;;5013118;28;20101;-37
2021/06/26 13:03:53;;;;;;;0.32;0.20;;;;;;;;;;5013474;28;20072;-35
2021/06/26 13:06:21;;;;;;;0.30;0.25;;;;;;;;;;5013420;28;20026;-35
2021/06/26 13:08:57;;;;;;;0.40;0.30;;;;;;;;;;5012972;28;20025;-36
2021/06/26 13:11:50;;;;;;;0.93;0.20;;;;;;;;;;5013477;28;20018;-39
2021/06/26 13:14:16;;;;;;;;;;;;;;;;;;5012051;28;20478;-37
2021/06/26 13:16:45;;;;;;;1.42;0.30;;;;;;;;;;5013233;28;20004;-36
2021/06/26 13:19:14;;;;;;;1.00;0.20;;;;;;;;;;5012313;28;20397;-48
2021/06/26 13:21:48;;;;;;;1.00;0.30;;;;;;;;;;5013141;28;20030;-34
2021/06/26 13:24:16;;;;;;;0.40;0.32;;;;;;;;;;5012915;28;20452;-40
2021/06/26 13:26:43;;;;;;;0.30;0.30;;;;;;;;;;5012655;28;20064;-36
2021/06/26 13:29:10;;;;;;;0.93;0.20;;;;;;;;;;5012182;28;20032;-34
2021/06/26 13:31:37;;;;;;;0.25;0.10;;;;;;;;;;5011614;28;20025;-36
2021/06/26 13:34:04;;;;;;;0.85;0.38;;;;;;;;;;5011673;28;20026;-38
2021/06/26 13:36:31;;;;;;;2.38;0.20;;;;;;;;;;5011773;28;20022;-35
2021/06/26 13:38:58;;;;;;;0.52;0.28;;;;;;;;;;5010688;28;20524;-55
2021/06/26 13:41:26;;;;;;;0.35;0.25;;;;;;;;;;4994248;28;20049;-35
2021/06/26 13:43:53;;;;;;;0.52;0.20;;;;;;;;;;5011341;28;20652;-34
2021/06/26 13:46:20;;;;;;;0.47;0.20;;;;;;;;;;5011617;28;20100;-36
2021/06/26 13:48:47;;;;;;;0.55;0.30;;;;;;;;;;5010971;28;20088;-34
2021/06/26 13:51:14;;;;;;;0.40;0.15;;;;;;;;;;5011005;28;20018;-38
2021/06/26 13:53:42;;;;;;;1.25;0.30;;;;;;;;;;5011380;28;20409;-34
2021/06/26 13:56:09;;;;;;;1.95;0.30;;;;;;;;;;5007706;28;20025;-40
2021/06/26 13:58:36;;;;;;;1.40;0.20;;;;;;;;;;5011353;28;20034;-35
2021/06/26 14:01:03;;;;;;;0.20;0.10;;;;;;;;;;5011008;28;20053;-35
2021/06/26 14:03:30;;;;;;;0.57;0.30;;;;;;;;;;5003284;28;20022;-36
2021/06/26 14:06:16;;;;;;;1.02;0.20;;;;;;;;;;5011272;28;20032;-34
2021/06/26 14:08:44;;;;;;;1.30;0.30;;;;;;;;;;5012225;28;20034;-35
2021/06/26 14:11:11;;;;;;;3.22;0.30;;;;;;;;;;5011462;28;20409;-35
2021/06/26 14:13:39;;;;;;;0.70;0.30;;;;;;;;;;5012125;28;20425;-35
2021/06/26 14:16:08;;;;;;;5.20;0.38;;;;;;;;;;5011195;28;20112;-34
2021/06/26 14:18:36;;;;;;;0.50;0.25;;;;;;;;;;4994148;28;20119;-35
2021/06/26 14:21:05;;;;;;;0.50;0.30;;;;;;;;;;5011472;28;20026;-34
2021/06/26 14:23:37;;;;;;;2.53;0.40;;;;;;;;;;5011444;28;20030;-35
2021/06/26 14:26:04;;;;;;;0.20;0.20;;;;;;;;;;5012278;28;20033;-35
2021/06/26 14:28:31;;;;;;;1.98;0.40;;;;;;;;;;5010661;28;20498;-35
2021/06/26 14:30:59;;;;;;;0.30;0.20;;;;;;;;;;5011451;28;20038;-35
2021/06/26 14:33:26;;;;;;;1.17;0.30;;;;;;;;;;5011236;28;20105;-34
2021/06/26 14:35:53;;;;;;;0.65;0.25;;;;;;;;;;5011760;28;20022;-34
2021/06/26 14:38:20;;;;;;;0.70;0.45;;;;;;;;;;5011498;28;20041;-35
2021/06/26 14:40:48;;;;;;;0.93;0.40;;;;;;;;;;5011008;28;20029;-38
2021/06/26 14:43:15;;;;;;;2.92;0.20;;;;;;;;;;4993159;28;20108;-34
2021/06/26 14:45:42;;;;;;;0.60;0.30;;;;;;;;;;5010257;28;20032;-35
2021/06/26 14:48:09;;;;;;;0.60;0.20;;;;;;;;;;5011025;28;20033;-34